sensor_id;sensor_type;location;lat;lon;timestamp;P1;durP1;ratioP1;P2;durP2;ratioP2
50789;SDS011;37287;47.554;7.844;2023-05-07T00:00:07;2.20;;;2.00;;
50789;SDS011;37287;47.554;7.844;2023-05-07T00:02:37;2.47;;;2.15;;
50789;SDS011;37287;47.554;7.844;2023-05-07T00:05:04;3.38;;;2.10;;
50789;SDS011;37287;47.554;7.844;2023-05-07T00:07:31;2.53;;;2.10;;
50789;SDS011;37287;47.554;7.844;2023-05-07T00:09:58;2.25;;;2.00;;
50789;SDS011;37287;47.554;7.844;2023-05-07T00:12:24;2.50;;;1.90;;
50789;SDS011;37287;47.554;7.844;2023-05-07T00:14:51;2.97;;;2.22;;
50789;SDS011;37287;47.554;7.844;2023-05-07T00:17:20;2.10;;;1.88;;
50789;SDS011;37287;47.554;7.844;2023-05-07T00:19:46;1.95;;;1.85;;
50789;SDS011;37287;47.554;7.844;2023-05-07T00:22:16;2.78;;;2.03;;
50789;SDS011;37287;47.554;7.844;2023-05-07T00:24:43;4.03;;;2.10;;
50789;SDS011;37287;47.554;7.844;2023-05-07T00:27:10;2.28;;;2.05;;
50789;SDS011;37287;47.554;7.844;2023-05-07T00:29:36;2.35;;;1.85;;
50789;SDS011;37287;47.554;7.844;2023-05-07T00:32:14;2.30;;;2.10;;
50789;SDS011;37287;47.554;7.844;2023-05-07T00:34:42;3.75;;;1.90;;
50789;SDS011;37287;47.554;7.844;2023-05-07T00:37:09;2.70;;;2.10;;
50789;SDS011;37287;47.554;7.844;2023-05-07T00:39:37;6.18;;;2.33;;
50789;SDS011;37287;47.554;7.844;2023-05-07T00:42:05;2.60;;;2.33;;
50789;SDS011;37287;47.554;7.844;2023-05-07T00:44:32;2.47;;;2.28;;
50789;SDS011;37287;47.554;7.844;2023-05-07T00:46:59;4.40;;;2.65;;
50789;SDS011;37287;47.554;7.844;2023-05-07T00:49:35;2.85;;;2.35;;
50789;SDS011;37287;47.554;7.844;2023-05-07T00:52:06;3.85;;;2.25;;
50789;SDS011;37287;47.554;7.844;2023-05-07T00:54:37;2.92;;;2.50;;
50789;SDS011;37287;47.554;7.844;2023-05-07T00:57:03;2.85;;;2.20;;
50789;SDS011;37287;47.554;7.844;2023-05-07T00:59:32;2.72;;;2.50;;
50789;SDS011;37287;47.554;7.844;2023-05-07T01:01:59;3.53;;;2.55;;
50789;SDS011;37287;47.554;7.844;2023-05-07T01:04:26;6.30;;;2.70;;
50789;SDS011;37287;47.554;7.844;2023-05-07T01:06:54;2.50;;;2.15;;
50789;SDS011;37287;47.554;7.844;2023-05-07T01:09:23;6.43;;;2.53;;
50789;SDS011;37287;47.554;7.844;2023-05-07T01:11:51;3.47;;;2.05;;
50789;SDS011;37287;47.554;7.844;2023-05-07T01:14:25;2.85;;;2.50;;
50789;SDS011;37287;47.554;7.844;2023-05-07T01:16:52;4.07;;;2.50;;
50789;SDS011;37287;47.554;7.844;2023-05-07T01:19:19;3.95;;;2.70;;
50789;SDS011;37287;47.554;7.844;2023-05-07T01:21:47;2.58;;;2.10;;
50789;SDS011;37287;47.554;7.844;2023-05-07T01:24:14;3.15;;;2.15;;
50789;SDS011;37287;47.554;7.844;2023-05-07T01:26:42;3.80;;;2.30;;
50789;SDS011;37287;47.554;7.844;2023-05-07T01:29:10;3.83;;;2.58;;
50789;SDS011;37287;47.554;7.844;2023-05-07T01:31:37;4.20;;;2.70;;
50789;SDS011;37287;47.554;7.844;2023-05-07T01:34:05;4.63;;;2.50;;
50789;SDS011;37287;47.554;7.844;2023-05-07T01:36:39;5.85;;;2.63;;
50789;SDS011;37287;47.554;7.844;2023-05-07T01:39:06;2.60;;;2.30;;
50789;SDS011;37287;47.554;7.844;2023-05-07T01:41:34;6.30;;;2.83;;
50789;SDS011;37287;47.554;7.844;2023-05-07T01:44:03;4.28;;;2.60;;
50789;SDS011;37287;47.554;7.844;2023-05-07T01:46:31;3.25;;;2.65;;
50789;SDS011;37287;47.554;7.844;2023-05-07T01:48:59;4.90;;;2.70;;
50789;SDS011;37287;47.554;7.844;2023-05-07T01:51:26;5.47;;;3.17;;
50789;SDS011;37287;47.554;7.844;2023-05-07T01:53:53;3.90;;;2.88;;
50789;SDS011;37287;47.554;7.844;2023-05-07T01:56:19;3.45;;;3.10;;
50789;SDS011;37287;47.554;7.844;2023-05-07T01:58:48;3.80;;;3.40;;
50789;SDS011;37287;47.554;7.844;2023-05-07T02:01:18;7.45;;;3.05;;
50789;SDS011;37287;47.554;7.844;2023-05-07T02:03:44;3.78;;;2.83;;
50789;SDS011;37287;47.554;7.844;2023-05-07T02:06:13;3.22;;;2.90;;
50789;SDS011;37287;47.554;7.844;2023-05-07T02:08:40;3.65;;;2.78;;
50789;SDS011;37287;47.554;7.844;2023-05-07T02:11:06;3.05;;;2.80;;
50789;SDS011;37287;47.554;7.844;2023-05-07T02:13:44;6.25;;;2.90;;
50789;SDS011;37287;47.554;7.844;2023-05-07T02:16:11;6.28;;;3.00;;
50789;SDS011;37287;47.554;7.844;2023-05-07T02:18:39;5.05;;;2.78;;
50789;SDS011;37287;47.554;7.844;2023-05-07T02:21:08;3.03;;;2.50;;
50789;SDS011;37287;47.554;7.844;2023-05-07T02:23:35;2.42;;;2.22;;
50789;SDS011;37287;47.554;7.844;2023-05-07T02:26:01;4.25;;;2.17;;
50789;SDS011;37287;47.554;7.844;2023-05-07T02:28:32;3.83;;;2.42;;
50789;SDS011;37287;47.554;7.844;2023-05-07T02:31:04;4.88;;;2.80;;
50789;SDS011;37287;47.554;7.844;2023-05-07T02:33:31;3.85;;;2.17;;
50789;SDS011;37287;47.554;7.844;2023-05-07T02:36:05;3.08;;;2.10;;
50789;SDS011;37287;47.554;7.844;2023-05-07T02:38:33;4.72;;;2.67;;
50789;SDS011;37287;47.554;7.844;2023-05-07T02:41:00;3.40;;;2.53;;
50789;SDS011;37287;47.554;7.844;2023-05-07T02:43:27;2.50;;;2.05;;
50789;SDS011;37287;47.554;7.844;2023-05-07T02:46:03;3.42;;;2.40;;
50789;SDS011;37287;47.554;7.844;2023-05-07T02:48:42;3.20;;;2.25;;
50789;SDS011;37287;47.554;7.844;2023-05-07T02:51:09;2.40;;;2.20;;
50789;SDS011;37287;47.554;7.844;2023-05-07T02:53:35;2.15;;;2.03;;
50789;SDS011;37287;47.554;7.844;2023-05-07T02:56:07;3.50;;;2.22;;
50789;SDS011;37287;47.554;7.844;2023-05-07T02:58:33;2.47;;;2.33;;
50789;SDS011;37287;47.554;7.844;2023-05-07T03:01:00;2.50;;;2.05;;
50789;SDS011;37287;47.554;7.844;2023-05-07T03:03:29;2.47;;;2.28;;
50789;SDS011;37287;47.554;7.844;2023-05-07T03:05:56;2.70;;;2.45;;
50789;SDS011;37287;47.554;7.844;2023-05-07T03:08:24;2.60;;;2.40;;
50789;SDS011;37287;47.554;7.844;2023-05-07T03:10:56;8.32;;;2.30;;
50789;SDS011;37287;47.554;7.844;2023-05-07T03:13:22;3.22;;;2.35;;
50789;SDS011;37287;47.554;7.844;2023-05-07T03:15:49;3.75;;;2.60;;
50789;SDS011;37287;47.554;7.844;2023-05-07T03:18:18;2.92;;;2.58;;
50789;SDS011;37287;47.554;7.844;2023-05-07T03:20:47;2.60;;;2.38;;
50789;SDS011;37287;47.554;7.844;2023-05-07T03:23:14;3.65;;;2.42;;
50789;SDS011;37287;47.554;7.844;2023-05-07T03:25:41;3.47;;;2.10;;
50789;SDS011;37287;47.554;7.844;2023-05-07T03:28:08;2.30;;;2.10;;
50789;SDS011;37287;47.554;7.844;2023-05-07T03:30:34;4.50;;;2.42;;
50789;SDS011;37287;47.554;7.844;2023-05-07T03:33:03;2.38;;;2.17;;
50789;SDS011;37287;47.554;7.844;2023-05-07T03:35:30;2.65;;;2.30;;
50789;SDS011;37287;47.554;7.844;2023-05-07T03:37:56;2.35;;;2.15;;
50789;SDS011;37287;47.554;7.844;2023-05-07T03:40:24;2.45;;;2.25;;
50789;SDS011;37287;47.554;7.844;2023-05-07T03:42:55;5.28;;;2.22;;
50789;SDS011;37287;47.554;7.844;2023-05-07T03:45:21;3.53;;;2.25;;
50789;SDS011;37287;47.554;7.844;2023-05-07T03:47:49;4.07;;;2.17;;
50789;SDS011;37287;47.554;7.844;2023-05-07T03:50:16;3.88;;;2.22;;
50789;SDS011;37287;47.554;7.844;2023-05-07T03:52:43;3.25;;;2.50;;
50789;SDS011;37287;47.554;7.844;2023-05-07T03:55:15;4.13;;;2.25;;
50789;SDS011;37287;47.554;7.844;2023-05-07T03:57:41;3.42;;;2.78;;
50789;SDS011;37287;47.554;7.844;2023-05-07T04:00:08;4.68;;;2.70;;
50789;SDS011;37287;47.554;7.844;2023-05-07T04:02:37;4.00;;;2.80;;
50789;SDS011;37287;47.554;7.844;2023-05-07T04:05:04;2.53;;;2.33;;
50789;SDS011;37287;47.554;7.844;2023-05-07T04:07:33;3.55;;;2.50;;
50789;SDS011;37287;47.554;7.844;2023-05-07T04:10:01;4.13;;;2.50;;
50789;SDS011;37287;47.554;7.844;2023-05-07T04:12:28;3.80;;;2.42;;
50789;SDS011;37287;47.554;7.844;2023-05-07T04:14:54;2.38;;;2.17;;
50789;SDS011;37287;47.554;7.844;2023-05-07T04:17:21;2.63;;;2.42;;
50789;SDS011;37287;47.554;7.844;2023-05-07T04:19:50;5.13;;;2.60;;
50789;SDS011;37287;47.554;7.844;2023-05-07T04:22:16;3.00;;;2.38;;
50789;SDS011;37287;47.554;7.844;2023-05-07T04:24:43;4.10;;;2.53;;
50789;SDS011;37287;47.554;7.844;2023-05-07T04:27:09;2.20;;;2.00;;
50789;SDS011;37287;47.554;7.844;2023-05-07T04:29:36;8.10;;;2.53;;
50789;SDS011;37287;47.554;7.844;2023-05-07T04:32:09;4.13;;;2.67;;
50789;SDS011;37287;47.554;7.844;2023-05-07T04:34:36;2.55;;;2.20;;
50789;SDS011;37287;47.554;7.844;2023-05-07T04:37:02;3.30;;;2.50;;
50789;SDS011;37287;47.554;7.844;2023-05-07T04:39:32;2.50;;;2.30;;
50789;SDS011;37287;47.554;7.844;2023-05-07T04:41:58;6.13;;;2.20;;
50789;SDS011;37287;47.554;7.844;2023-05-07T04:44:29;3.60;;;2.22;;
50789;SDS011;37287;47.554;7.844;2023-05-07T04:46:57;2.45;;;2.25;;
50789;SDS011;37287;47.554;7.844;2023-05-07T04:49:24;2.00;;;1.70;;
50789;SDS011;37287;47.554;7.844;2023-05-07T04:51:50;2.25;;;1.80;;
50789;SDS011;37287;47.554;7.844;2023-05-07T04:54:19;3.60;;;1.85;;
50789;SDS011;37287;47.554;7.844;2023-05-07T04:56:46;3.58;;;2.30;;
50789;SDS011;37287;47.554;7.844;2023-05-07T04:59:12;5.43;;;2.50;;
50789;SDS011;37287;47.554;7.844;2023-05-07T05:01:39;4.20;;;2.25;;
50789;SDS011;37287;47.554;7.844;2023-05-07T05:04:06;5.82;;;2.20;;
50789;SDS011;37287;47.554;7.844;2023-05-07T05:06:33;5.53;;;2.45;;
50789;SDS011;37287;47.554;7.844;2023-05-07T05:09:06;2.08;;;1.90;;
50789;SDS011;37287;47.554;7.844;2023-05-07T05:11:32;2.47;;;2.15;;
50789;SDS011;37287;47.554;7.844;2023-05-07T05:13:59;3.28;;;2.20;;
50789;SDS011;37287;47.554;7.844;2023-05-07T05:16:28;4.30;;;3.42;;
50789;SDS011;37287;47.554;7.844;2023-05-07T05:18:55;3.55;;;2.70;;
50789;SDS011;37287;47.554;7.844;2023-05-07T05:21:24;3.00;;;2.45;;
50789;SDS011;37287;47.554;7.844;2023-05-07T05:23:50;6.05;;;2.45;;
50789;SDS011;37287;47.554;7.844;2023-05-07T05:26:18;2.75;;;2.28;;
50789;SDS011;37287;47.554;7.844;2023-05-07T05:28:44;3.30;;;2.25;;
50789;SDS011;37287;47.554;7.844;2023-05-07T05:31:13;4.65;;;2.47;;
50789;SDS011;37287;47.554;7.844;2023-05-07T05:33:42;3.22;;;2.20;;
50789;SDS011;37287;47.554;7.844;2023-05-07T05:36:09;4.30;;;2.20;;
50789;SDS011;37287;47.554;7.844;2023-05-07T05:38:37;2.30;;;2.10;;
50789;SDS011;37287;47.554;7.844;2023-05-07T05:41:06;3.70;;;1.90;;
50789;SDS011;37287;47.554;7.844;2023-05-07T05:43:33;3.88;;;2.50;;
50789;SDS011;37287;47.554;7.844;2023-05-07T05:45:59;2.90;;;2.33;;
50789;SDS011;37287;47.554;7.844;2023-05-07T05:48:28;2.97;;;2.10;;
50789;SDS011;37287;47.554;7.844;2023-05-07T05:50:55;2.40;;;2.20;;
50789;SDS011;37287;47.554;7.844;2023-05-07T05:53:23;4.53;;;2.17;;
50789;SDS011;37287;47.554;7.844;2023-05-07T05:55:49;2.40;;;2.20;;
50789;SDS011;37287;47.554;7.844;2023-05-07T05:58:17;3.88;;;2.08;;
50789;SDS011;37287;47.554;7.844;2023-05-07T06:00:46;4.47;;;2.30;;
50789;SDS011;37287;47.554;7.844;2023-05-07T06:03:14;2.97;;;2.20;;
50789;SDS011;37287;47.554;7.844;2023-05-07T06:05:41;4.32;;;2.00;;
50789;SDS011;37287;47.554;7.844;2023-05-07T06:08:09;6.10;;;1.98;;
50789;SDS011;37287;47.554;7.844;2023-05-07T06:10:36;2.47;;;2.03;;
50789;SDS011;37287;47.554;7.844;2023-05-07T06:13:03;2.33;;;2.10;;
50789;SDS011;37287;47.554;7.844;2023-05-07T06:15:43;3.20;;;1.90;;
50789;SDS011;37287;47.554;7.844;2023-05-07T06:18:09;3.97;;;1.98;;
50789;SDS011;37287;47.554;7.844;2023-05-07T06:20:36;3.20;;;1.98;;
50789;SDS011;37287;47.554;7.844;2023-05-07T06:23:09;2.10;;;1.70;;
50789;SDS011;37287;47.554;7.844;2023-05-07T06:25:36;3.47;;;1.73;;
50789;SDS011;37287;47.554;7.844;2023-05-07T06:28:02;2.47;;;2.22;;
50789;SDS011;37287;47.554;7.844;2023-05-07T06:30:31;4.10;;;1.98;;
50789;SDS011;37287;47.554;7.844;2023-05-07T06:32:57;6.40;;;2.30;;
50789;SDS011;37287;47.554;7.844;2023-05-07T06:35:25;2.30;;;2.10;;
50789;SDS011;37287;47.554;7.844;2023-05-07T06:37:51;2.22;;;1.98;;
50789;SDS011;37287;47.554;7.844;2023-05-07T06:40:20;3.17;;;2.10;;
50789;SDS011;37287;47.554;7.844;2023-05-07T06:42:46;2.83;;;2.00;;
50789;SDS011;37287;47.554;7.844;2023-05-07T06:45:19;9.70;;;2.58;;
50789;SDS011;37287;47.554;7.844;2023-05-07T06:47:46;2.83;;;2.05;;
50789;SDS011;37287;47.554;7.844;2023-05-07T06:50:13;4.28;;;2.13;;
50789;SDS011;37287;47.554;7.844;2023-05-07T06:52:44;3.50;;;1.90;;
50789;SDS011;37287;47.554;7.844;2023-05-07T06:55:10;1.65;;;1.55;;
50789;SDS011;37287;47.554;7.844;2023-05-07T06:57:37;6.50;;;1.65;;
50789;SDS011;37287;47.554;7.844;2023-05-07T07:00:04;7.13;;;1.70;;
50789;SDS011;37287;47.554;7.844;2023-05-07T07:02:36;2.17;;;1.60;;
50789;SDS011;37287;47.554;7.844;2023-05-07T07:05:04;4.35;;;1.90;;
50789;SDS011;37287;47.554;7.844;2023-05-07T07:07:33;2.85;;;1.70;;
50789;SDS011;37287;47.554;7.844;2023-05-07T07:10:00;4.03;;;1.85;;
50789;SDS011;37287;47.554;7.844;2023-05-07T07:12:26;4.75;;;1.75;;
50789;SDS011;37287;47.554;7.844;2023-05-07T07:14:56;1.73;;;1.58;;
50789;SDS011;37287;47.554;7.844;2023-05-07T07:17:26;2.97;;;1.73;;
50789;SDS011;37287;47.554;7.844;2023-05-07T07:19:53;3.55;;;1.98;;
50789;SDS011;37287;47.554;7.844;2023-05-07T07:22:21;1.88;;;1.58;;
50789;SDS011;37287;47.554;7.844;2023-05-07T07:24:48;2.45;;;1.67;;
50789;SDS011;37287;47.554;7.844;2023-05-07T07:27:14;2.17;;;1.60;;
50789;SDS011;37287;47.554;7.844;2023-05-07T07:29:47;5.07;;;1.70;;
50789;SDS011;37287;47.554;7.844;2023-05-07T07:32:14;1.60;;;1.50;;
50789;SDS011;37287;47.554;7.844;2023-05-07T07:34:41;3.17;;;1.70;;
50789;SDS011;37287;47.554;7.844;2023-05-07T07:37:09;3.50;;;1.92;;
50789;SDS011;37287;47.554;7.844;2023-05-07T07:39:35;2.17;;;1.77;;
50789;SDS011;37287;47.554;7.844;2023-05-07T07:42:04;1.58;;;1.45;;
50789;SDS011;37287;47.554;7.844;2023-05-07T07:44:31;1.45;;;1.35;;
50789;SDS011;37287;47.554;7.844;2023-05-07T07:46:57;1.73;;;1.20;;
50789;SDS011;37287;47.554;7.844;2023-05-07T07:49:24;1.70;;;1.38;;
50789;SDS011;37287;47.554;7.844;2023-05-07T07:51:51;1.30;;;1.20;;
50789;SDS011;37287;47.554;7.844;2023-05-07T07:54:19;1.92;;;1.50;;
50789;SDS011;37287;47.554;7.844;2023-05-07T07:56:45;3.05;;;1.45;;
50789;SDS011;37287;47.554;7.844;2023-05-07T07:59:12;1.30;;;1.20;;
50789;SDS011;37287;47.554;7.844;2023-05-07T08:01:40;4.25;;;1.58;;
50789;SDS011;37287;47.554;7.844;2023-05-07T08:04:07;2.55;;;1.48;;
50789;SDS011;37287;47.554;7.844;2023-05-07T08:06:38;1.63;;;1.48;;
50789;SDS011;37287;47.554;7.844;2023-05-07T08:09:05;1.55;;;1.45;;
50789;SDS011;37287;47.554;7.844;2023-05-07T08:11:31;3.28;;;1.33;;
50789;SDS011;37287;47.554;7.844;2023-05-07T08:14:00;1.75;;;1.10;;
50789;SDS011;37287;47.554;7.844;2023-05-07T08:16:27;1.60;;;1.27;;
50789;SDS011;37287;47.554;7.844;2023-05-07T08:18:56;1.48;;;1.13;;
50789;SDS011;37287;47.554;7.844;2023-05-07T08:21:23;1.48;;;1.25;;
50789;SDS011;37287;47.554;7.844;2023-05-07T08:23:49;1.98;;;1.20;;
50789;SDS011;37287;47.554;7.844;2023-05-07T08:26:17;1.33;;;1.20;;
50789;SDS011;37287;47.554;7.844;2023-05-07T08:28:46;1.75;;;1.50;;
50789;SDS011;37287;47.554;7.844;2023-05-07T08:31:13;1.52;;;1.20;;
50789;SDS011;37287;47.554;7.844;2023-05-07T08:33:39;1.60;;;1.35;;
50789;SDS011;37287;47.554;7.844;2023-05-07T08:36:06;1.30;;;1.20;;
50789;SDS011;37287;47.554;7.844;2023-05-07T08:38:33;1.58;;;1.25;;
50789;SDS011;37287;47.554;7.844;2023-05-07T08:40:59;1.73;;;1.10;;
50789;SDS011;37287;47.554;7.844;2023-05-07T08:43:28;2.50;;;1.25;;
50789;SDS011;37287;47.554;7.844;2023-05-07T08:45:57;1.48;;;1.30;;
50789;SDS011;37287;47.554;7.844;2023-05-07T08:48:27;1.67;;;1.00;;
50789;SDS011;37287;47.554;7.844;2023-05-07T08:50:57;1.83;;;1.15;;
50789;SDS011;37287;47.554;7.844;2023-05-07T08:53:24;1.75;;;1.30;;
50789;SDS011;37287;47.554;7.844;2023-05-07T08:55:52;1.23;;;1.15;;
50789;SDS011;37287;47.554;7.844;2023-05-07T08:58:20;1.30;;;1.15;;
50789;SDS011;37287;47.554;7.844;2023-05-07T09:00:47;1.90;;;1.30;;
50789;SDS011;37287;47.554;7.844;2023-05-07T09:03:14;1.70;;;1.25;;
50789;SDS011;37287;47.554;7.844;2023-05-07T09:05:42;1.63;;;1.20;;
50789;SDS011;37287;47.554;7.844;2023-05-07T09:08:10;1.20;;;1.10;;
50789;SDS011;37287;47.554;7.844;2023-05-07T09:10:41;2.15;;;1.45;;
50789;SDS011;37287;47.554;7.844;2023-05-07T09:13:10;1.88;;;1.20;;
50789;SDS011;37287;47.554;7.844;2023-05-07T09:15:39;1.52;;;1.25;;
50789;SDS011;37287;47.554;7.844;2023-05-07T09:18:06;1.63;;;1.17;;
50789;SDS011;37287;47.554;7.844;2023-05-07T09:20:36;1.25;;;1.10;;
50789;SDS011;37287;47.554;7.844;2023-05-07T09:23:03;1.30;;;1.20;;
50789;SDS011;37287;47.554;7.844;2023-05-07T09:25:33;4.53;;;1.20;;
50789;SDS011;37287;47.554;7.844;2023-05-07T09:28:06;2.08;;;0.90;;
50789;SDS011;37287;47.554;7.844;2023-05-07T09:30:33;2.80;;;1.33;;
50789;SDS011;37287;47.554;7.844;2023-05-07T09:33:01;1.50;;;1.40;;
50789;SDS011;37287;47.554;7.844;2023-05-07T09:35:31;2.25;;;1.38;;
50789;SDS011;37287;47.554;7.844;2023-05-07T09:37:58;2.13;;;1.48;;
50789;SDS011;37287;47.554;7.844;2023-05-07T09:40:29;2.92;;;1.52;;
50789;SDS011;37287;47.554;7.844;2023-05-07T09:43:11;2.50;;;1.08;;
50789;SDS011;37287;47.554;7.844;2023-05-07T09:45:38;1.70;;;1.30;;
50789;SDS011;37287;47.554;7.844;2023-05-07T09:48:05;2.03;;;1.30;;
50789;SDS011;37287;47.554;7.844;2023-05-07T09:50:35;2.97;;;1.40;;
50789;SDS011;37287;47.554;7.844;2023-05-07T09:53:07;1.20;;;1.10;;
50789;SDS011;37287;47.554;7.844;2023-05-07T09:55:36;2.30;;;1.33;;
50789;SDS011;37287;47.554;7.844;2023-05-07T09:58:05;1.20;;;1.10;;
50789;SDS011;37287;47.554;7.844;2023-05-07T10:00:34;1.75;;;1.20;;
50789;SDS011;37287;47.554;7.844;2023-05-07T10:03:02;1.20;;;1.10;;
50789;SDS011;37287;47.554;7.844;2023-05-07T10:05:30;1.45;;;1.08;;
50789;SDS011;37287;47.554;7.844;2023-05-07T10:07:58;2.58;;;1.30;;
50789;SDS011;37287;47.554;7.844;2023-05-07T10:10:30;2.58;;;1.13;;
50789;SDS011;37287;47.554;7.844;2023-05-07T10:13:01;1.48;;;1.23;;
50789;SDS011;37287;47.554;7.844;2023-05-07T10:15:28;2.00;;;1.45;;
50789;SDS011;37287;47.554;7.844;2023-05-07T10:17:58;1.60;;;1.30;;
50789;SDS011;37287;47.554;7.844;2023-05-07T10:20:27;3.22;;;1.30;;
50789;SDS011;37287;47.554;7.844;2023-05-07T10:22:54;1.58;;;1.10;;
50789;SDS011;37287;47.554;7.844;2023-05-07T10:25:25;3.38;;;1.50;;
50789;SDS011;37287;47.554;7.844;2023-05-07T10:28:04;1.15;;;1.05;;
50789;SDS011;37287;47.554;7.844;2023-05-07T10:33:18;1.38;;;1.20;;
50789;SDS011;37287;47.554;7.844;2023-05-07T10:35:47;2.40;;;1.75;;
50789;SDS011;37287;47.554;7.844;2023-05-07T10:38:14;1.40;;;1.30;;
50789;SDS011;37287;47.554;7.844;2023-05-07T10:40:43;1.15;;;1.05;;
50789;SDS011;37287;47.554;7.844;2023-05-07T10:43:13;1.23;;;1.13;;
50789;SDS011;37287;47.554;7.844;2023-05-07T10:45:40;1.58;;;1.30;;
50789;SDS011;37287;47.554;7.844;2023-05-07T10:48:13;1.50;;;1.40;;
50789;SDS011;37287;47.554;7.844;2023-05-07T10:53:44;3.03;;;1.52;;
50789;SDS011;37287;47.554;7.844;2023-05-07T10:58:44;1.60;;;1.50;;
50789;SDS011;37287;47.554;7.844;2023-05-07T11:01:11;2.25;;;1.80;;
50789;SDS011;37287;47.554;7.844;2023-05-07T11:06:41;3.15;;;1.60;;
50789;SDS011;37287;47.554;7.844;2023-05-07T11:09:07;2.22;;;1.75;;
50789;SDS011;37287;47.554;7.844;2023-05-07T11:11:46;4.50;;;1.80;;
50789;SDS011;37287;47.554;7.844;2023-05-07T11:14:14;3.13;;;1.90;;
50789;SDS011;37287;47.554;7.844;2023-05-07T11:17:02;2.60;;;1.90;;
50789;SDS011;37287;47.554;7.844;2023-05-07T11:22:35;2.40;;;1.92;;
50789;SDS011;37287;47.554;7.844;2023-05-07T11:25:06;1.80;;;1.70;;
50789;SDS011;37287;47.554;7.844;2023-05-07T11:27:33;2.47;;;1.83;;
50789;SDS011;37287;47.554;7.844;2023-05-07T11:30:02;1.88;;;1.77;;
50789;SDS011;37287;47.554;7.844;2023-05-07T11:32:30;1.80;;;1.70;;
50789;SDS011;37287;47.554;7.844;2023-05-07T11:34:59;3.00;;;1.65;;
50789;SDS011;37287;47.554;7.844;2023-05-07T11:37:27;3.78;;;2.00;;
50789;SDS011;37287;47.554;7.844;2023-05-07T11:40:06;2.03;;;1.70;;
50789;SDS011;37287;47.554;7.844;2023-05-07T11:42:36;2.03;;;1.45;;
50789;SDS011;37287;47.554;7.844;2023-05-07T11:45:04;1.90;;;1.70;;
50789;SDS011;37287;47.554;7.844;2023-05-07T11:47:37;2.50;;;1.70;;
50789;SDS011;37287;47.554;7.844;2023-05-07T11:50:04;2.60;;;1.90;;
50789;SDS011;37287;47.554;7.844;2023-05-07T11:52:35;2.10;;;1.70;;
50789;SDS011;37287;47.554;7.844;2023-05-07T11:55:02;3.53;;;1.60;;
50789;SDS011;37287;47.554;7.844;2023-05-07T11:57:32;1.88;;;1.65;;
50789;SDS011;37287;47.554;7.844;2023-05-07T12:00:00;7.68;;;1.95;;
50789;SDS011;37287;47.554;7.844;2023-05-07T12:02:28;3.22;;;2.13;;
50789;SDS011;37287;47.554;7.844;2023-05-07T12:04:57;4.32;;;2.17;;
50789;SDS011;37287;47.554;7.844;2023-05-07T12:07:28;3.30;;;2.53;;
50789;SDS011;37287;47.554;7.844;2023-05-07T12:09:54;4.25;;;1.80;;
50789;SDS011;37287;47.554;7.844;2023-05-07T12:12:21;2.50;;;1.98;;
50789;SDS011;37287;47.554;7.844;2023-05-07T12:14:49;4.53;;;2.30;;
50789;SDS011;37287;47.554;7.844;2023-05-07T12:17:18;4.43;;;1.90;;
50789;SDS011;37287;47.554;7.844;2023-05-07T12:19:45;4.95;;;2.50;;
50789;SDS011;37287;47.554;7.844;2023-05-07T12:22:12;2.97;;;2.20;;
50789;SDS011;37287;47.554;7.844;2023-05-07T12:24:45;3.33;;;2.20;;
50789;SDS011;37287;47.554;7.844;2023-05-07T12:27:14;10.23;;;2.30;;
50789;SDS011;37287;47.554;7.844;2023-05-07T12:29:47;3.13;;;2.13;;
50789;SDS011;37287;47.554;7.844;2023-05-07T12:32:18;4.47;;;2.40;;
50789;SDS011;37287;47.554;7.844;2023-05-07T12:34:46;4.47;;;1.85;;
50789;SDS011;37287;47.554;7.844;2023-05-07T12:37:16;3.47;;;1.90;;
50789;SDS011;37287;47.554;7.844;2023-05-07T12:39:49;1.77;;;1.67;;
50789;SDS011;37287;47.554;7.844;2023-05-07T12:42:41;4.30;;;2.15;;
50789;SDS011;37287;47.554;7.844;2023-05-07T12:45:10;2.13;;;1.90;;
50789;SDS011;37287;47.554;7.844;2023-05-07T12:47:43;2.58;;;1.98;;
50789;SDS011;37287;47.554;7.844;2023-05-07T12:50:13;2.78;;;2.15;;
50789;SDS011;37287;47.554;7.844;2023-05-07T12:52:43;2.47;;;2.25;;
50789;SDS011;37287;47.554;7.844;2023-05-07T12:55:12;2.50;;;2.20;;
50789;SDS011;37287;47.554;7.844;2023-05-07T12:57:41;4.55;;;2.10;;
50789;SDS011;37287;47.554;7.844;2023-05-07T13:00:09;4.55;;;2.30;;
50789;SDS011;37287;47.554;7.844;2023-05-07T13:02:40;2.53;;;2.30;;
50789;SDS011;37287;47.554;7.844;2023-05-07T13:05:09;2.40;;;2.20;;
50789;SDS011;37287;47.554;7.844;2023-05-07T13:07:36;2.28;;;1.98;;
50789;SDS011;37287;47.554;7.844;2023-05-07T13:10:04;7.72;;;1.70;;
50789;SDS011;37287;47.554;7.844;2023-05-07T13:12:31;2.72;;;2.20;;
50789;SDS011;37287;47.554;7.844;2023-05-07T13:14:57;2.15;;;1.92;;
50789;SDS011;37287;47.554;7.844;2023-05-07T13:17:25;2.33;;;1.77;;
50789;SDS011;37287;47.554;7.844;2023-05-07T13:19:53;3.58;;;1.85;;
50789;SDS011;37287;47.554;7.844;2023-05-07T13:22:20;6.15;;;2.00;;
50789;SDS011;37287;47.554;7.844;2023-05-07T13:24:47;2.13;;;1.80;;
50789;SDS011;37287;47.554;7.844;2023-05-07T13:27:15;2.33;;;1.90;;
50789;SDS011;37287;47.554;7.844;2023-05-07T13:29:42;3.05;;;1.80;;
50789;SDS011;37287;47.554;7.844;2023-05-07T13:32:08;4.25;;;2.10;;
50789;SDS011;37287;47.554;7.844;2023-05-07T13:34:41;2.15;;;1.80;;
50789;SDS011;37287;47.554;7.844;2023-05-07T13:37:08;3.08;;;1.92;;
50789;SDS011;37287;47.554;7.844;2023-05-07T13:39:36;1.60;;;1.50;;
50789;SDS011;37287;47.554;7.844;2023-05-07T13:42:11;1.73;;;1.60;;
50789;SDS011;37287;47.554;7.844;2023-05-07T13:44:37;3.70;;;2.20;;
50789;SDS011;37287;47.554;7.844;2023-05-07T13:47:07;1.92;;;1.70;;
50789;SDS011;37287;47.554;7.844;2023-05-07T13:49:34;2.10;;;1.88;;
50789;SDS011;37287;47.554;7.844;2023-05-07T13:52:00;2.08;;;1.52;;
50789;SDS011;37287;47.554;7.844;2023-05-07T13:54:33;3.35;;;1.65;;
50789;SDS011;37287;47.554;7.844;2023-05-07T13:56:59;5.90;;;2.13;;
50789;SDS011;37287;47.554;7.844;2023-05-07T13:59:26;3.55;;;1.77;;
50789;SDS011;37287;47.554;7.844;2023-05-07T14:01:53;2.85;;;2.00;;
50789;SDS011;37287;47.554;7.844;2023-05-07T14:04:23;1.60;;;1.50;;
50789;SDS011;37287;47.554;7.844;2023-05-07T14:06:49;2.00;;;1.58;;
50789;SDS011;37287;47.554;7.844;2023-05-07T14:09:16;1.60;;;1.50;;
50789;SDS011;37287;47.554;7.844;2023-05-07T14:11:44;1.42;;;1.23;;
50789;SDS011;37287;47.554;7.844;2023-05-07T14:14:13;1.95;;;1.70;;
50789;SDS011;37287;47.554;7.844;2023-05-07T14:16:43;1.92;;;1.70;;
50789;SDS011;37287;47.554;7.844;2023-05-07T14:19:15;1.67;;;1.50;;
50789;SDS011;37287;47.554;7.844;2023-05-07T14:21:42;2.20;;;1.48;;
50789;SDS011;37287;47.554;7.844;2023-05-07T14:24:08;1.83;;;1.40;;
50789;SDS011;37287;47.554;7.844;2023-05-07T14:26:36;3.60;;;1.50;;
50789;SDS011;37287;47.554;7.844;2023-05-07T14:29:04;2.08;;;1.33;;
50789;SDS011;37287;47.554;7.844;2023-05-07T14:31:31;1.38;;;1.25;;
50789;SDS011;37287;47.554;7.844;2023-05-07T14:34:00;1.50;;;1.40;;
50789;SDS011;37287;47.554;7.844;2023-05-07T14:36:28;1.73;;;1.38;;
50789;SDS011;37287;47.554;7.844;2023-05-07T14:38:56;1.45;;;1.30;;
50789;SDS011;37287;47.554;7.844;2023-05-07T14:41:25;2.28;;;1.25;;
50789;SDS011;37287;47.554;7.844;2023-05-07T14:43:51;1.80;;;1.48;;
50789;SDS011;37287;47.554;7.844;2023-05-07T14:46:18;4.00;;;1.45;;
50789;SDS011;37287;47.554;7.844;2023-05-07T14:48:45;1.48;;;1.25;;
50789;SDS011;37287;47.554;7.844;2023-05-07T14:51:13;1.52;;;1.40;;
50789;SDS011;37287;47.554;7.844;2023-05-07T14:53:40;1.60;;;1.40;;
50789;SDS011;37287;47.554;7.844;2023-05-07T14:56:09;2.85;;;1.48;;
50789;SDS011;37287;47.554;7.844;2023-05-07T14:58:36;1.35;;;1.13;;
50789;SDS011;37287;47.554;7.844;2023-05-07T15:01:03;1.63;;;1.48;;
50789;SDS011;37287;47.554;7.844;2023-05-07T15:03:36;2.10;;;1.40;;
50789;SDS011;37287;47.554;7.844;2023-05-07T15:06:03;1.70;;;1.48;;
50789;SDS011;37287;47.554;7.844;2023-05-07T15:08:30;1.42;;;1.33;;